sensor_id;sensor_type;location;lat;lon;timestamp;temperature;humidity
36990;DHT22;22898;52.102;5.776;2023-07-29T00:01:44;27.00;99.90
36990;DHT22;22898;52.102;5.776;2023-07-29T00:04:09;27.00;99.90
36990;DHT22;22898;52.102;5.776;2023-07-29T00:06:35;27.00;99.90
36990;DHT22;22898;52.102;5.776;2023-07-29T00:09:02;27.00;99.90
36990;DHT22;22898;52.102;5.776;2023-07-29T00:11:28;27.00;99.90
36990;DHT22;22898;52.102;5.776;2023-07-29T00:13:53;27.00;99.90
36990;DHT22;22898;52.102;5.776;2023-07-29T00:16:19;27.00;99.90
36990;DHT22;22898;52.102;5.776;2023-07-29T00:18:48;26.90;99.90
36990;DHT22;22898;52.102;5.776;2023-07-29T00:21:13;26.90;99.90
36990;DHT22;22898;52.102;5.776;2023-07-29T00:23:39;26.90;99.90
36990;DHT22;22898;52.102;5.776;2023-07-29T00:26:04;26.90;99.90
36990;DHT22;22898;52.102;5.776;2023-07-29T00:28:30;27.00;99.90
36990;DHT22;22898;52.102;5.776;2023-07-29T00:30:56;27.00;99.90
36990;DHT22;22898;52.102;5.776;2023-07-29T00:33:22;27.00;99.90
36990;DHT22;22898;52.102;5.776;2023-07-29T00:35:47;26.90;99.90
36990;DHT22;22898;52.102;5.776;2023-07-29T00:38:13;26.80;99.90
36990;DHT22;22898;52.102;5.776;2023-07-29T00:40:38;26.80;99.90
36990;DHT22;22898;52.102;5.776;2023-07-29T00:43:04;26.70;99.90
36990;DHT22;22898;52.102;5.776;2023-07-29T00:45:30;26.70;99.90
36990;DHT22;22898;52.102;5.776;2023-07-29T00:47:57;26.60;99.90
36990;DHT22;22898;52.102;5.776;2023-07-29T00:50:22;26.60;99.90
36990;DHT22;22898;52.102;5.776;2023-07-29T00:52:49;26.50;99.90
36990;DHT22;22898;52.102;5.776;2023-07-29T00:55:15;26.50;99.90
36990;DHT22;22898;52.102;5.776;2023-07-29T00:57:41;26.40;99.90
36990;DHT22;22898;52.102;5.776;2023-07-29T01:00:08;26.40;99.90
36990;DHT22;22898;52.102;5.776;2023-07-29T01:02:35;26.40;99.90
36990;DHT22;22898;52.102;5.776;2023-07-29T01:05:00;26.40;99.90
36990;DHT22;22898;52.102;5.776;2023-07-29T01:07:31;26.30;99.90
36990;DHT22;22898;52.102;5.776;2023-07-29T01:10:19;26.30;99.90
36990;DHT22;22898;52.102;5.776;2023-07-29T01:15:49;26.30;99.90
36990;DHT22;22898;52.102;5.776;2023-07-29T01:18:27;26.30;99.90
36990;DHT22;22898;52.102;5.776;2023-07-29T01:20:57;26.30;99.90
36990;DHT22;22898;52.102;5.776;2023-07-29T01:23:25;26.30;99.90
36990;DHT22;22898;52.102;5.776;2023-07-29T01:25:51;26.20;99.90
36990;DHT22;22898;52.102;5.776;2023-07-29T01:28:16;26.10;99.90
36990;DHT22;22898;52.102;5.776;2023-07-29T01:30:43;26.10;99.90
36990;DHT22;22898;52.102;5.776;2023-07-29T01:33:25;26.00;99.90
36990;DHT22;22898;52.102;5.776;2023-07-29T01:35:57;25.90;99.90
36990;DHT22;22898;52.102;5.776;2023-07-29T01:38:28;25.80;99.90
36990;DHT22;22898;52.102;5.776;2023-07-29T01:40:57;25.80;99.90
36990;DHT22;22898;52.102;5.776;2023-07-29T01:43:23;25.80;99.90
36990;DHT22;22898;52.102;5.776;2023-07-29T01:45:51;25.90;99.90
36990;DHT22;22898;52.102;5.776;2023-07-29T01:48:16;25.90;99.90
36990;DHT22;22898;52.102;5.776;2023-07-29T01:50:42;25.90;99.90
36990;DHT22;22898;52.102;5.776;2023-07-29T01:53:08;26.00;99.90
36990;DHT22;22898;52.102;5.776;2023-07-29T01:55:33;26.00;99.90
36990;DHT22;22898;52.102;5.776;2023-07-29T01:57:59;26.00;99.90
36990;DHT22;22898;52.102;5.776;2023-07-29T02:00:25;26.00;99.90
36990;DHT22;22898;52.102;5.776;2023-07-29T02:02:50;26.10;99.90
36990;DHT22;22898;52.102;5.776;2023-07-29T02:05:16;26.10;99.90
36990;DHT22;22898;52.102;5.776;2023-07-29T02:07:41;26.10;99.90
36990;DHT22;22898;52.102;5.776;2023-07-29T02:10:07;26.10;99.90
36990;DHT22;22898;52.102;5.776;2023-07-29T02:12:33;26.20;99.90
36990;DHT22;22898;52.102;5.776;2023-07-29T02:14:59;26.10;99.90
36990;DHT22;22898;52.102;5.776;2023-07-29T02:17:25;26.10;99.90
36990;DHT22;22898;52.102;5.776;2023-07-29T02:19:51;26.10;99.90
36990;DHT22;22898;52.102;5.776;2023-07-29T02:22:17;26.10;99.90
36990;DHT22;22898;52.102;5.776;2023-07-29T02:24:44;26.20;99.90
36990;DHT22;22898;52.102;5.776;2023-07-29T02:27:09;26.20;99.90
36990;DHT22;22898;52.102;5.776;2023-07-29T02:29:35;26.20;99.90
36990;DHT22;22898;52.102;5.776;2023-07-29T02:32:00;26.20;99.90
36990;DHT22;22898;52.102;5.776;2023-07-29T02:34:26;26.20;99.90
36990;DHT22;22898;52.102;5.776;2023-07-29T02:36:51;26.20;99.90
36990;DHT22;22898;52.102;5.776;2023-07-29T02:39:17;26.20;99.90
36990;DHT22;22898;52.102;5.776;2023-07-29T02:41:43;26.30;99.90
36990;DHT22;22898;52.102;5.776;2023-07-29T02:44:09;26.30;99.90
36990;DHT22;22898;52.102;5.776;2023-07-29T02:46:34;26.20;99.90
36990;DHT22;22898;52.102;5.776;2023-07-29T02:49:02;26.30;99.90
36990;DHT22;22898;52.102;5.776;2023-07-29T02:51:28;26.30;99.90
36990;DHT22;22898;52.102;5.776;2023-07-29T02:53:54;26.20;99.90
36990;DHT22;22898;52.102;5.776;2023-07-29T02:56:19;26.10;99.90
36990;DHT22;22898;52.102;5.776;2023-07-29T02:58:45;26.20;99.90
36990;DHT22;22898;52.102;5.776;2023-07-29T03:01:10;26.20;99.90
36990;DHT22;22898;52.102;5.776;2023-07-29T03:03:36;26.10;99.90
36990;DHT22;22898;52.102;5.776;2023-07-29T03:06:06;26.20;99.90
36990;DHT22;22898;52.102;5.776;2023-07-29T03:08:31;26.20;99.90
36990;DHT22;22898;52.102;5.776;2023-07-29T03:10:58;26.20;99.90
36990;DHT22;22898;52.102;5.776;2023-07-29T03:13:23;26.10;99.90
36990;DHT22;22898;52.102;5.776;2023-07-29T03:15:49;26.10;99.90
36990;DHT22;22898;52.102;5.776;2023-07-29T03:18:15;26.10;99.90
36990;DHT22;22898;52.102;5.776;2023-07-29T03:20:41;26.10;99.90
36990;DHT22;22898;52.102;5.776;2023-07-29T03:23:07;26.10;99.90
36990;DHT22;22898;52.102;5.776;2023-07-29T03:25:32;26.10;99.90
36990;DHT22;22898;52.102;5.776;2023-07-29T03:27:58;26.10;99.90
36990;DHT22;22898;52.102;5.776;2023-07-29T03:30:24;26.10;99.90
36990;DHT22;22898;52.102;5.776;2023-07-29T03:32:50;26.10;99.90
36990;DHT22;22898;52.102;5.776;2023-07-29T03:35:16;26.10;99.90
36990;DHT22;22898;52.102;5.776;2023-07-29T03:37:41;26.10;99.90
36990;DHT22;22898;52.102;5.776;2023-07-29T03:40:07;26.00;99.90
36990;DHT22;22898;52.102;5.776;2023-07-29T03:42:34;26.00;99.90
36990;DHT22;22898;52.102;5.776;2023-07-29T03:45:00;26.00;99.90
36990;DHT22;22898;52.102;5.776;2023-07-29T03:47:26;26.00;99.90
36990;DHT22;22898;52.102;5.776;2023-07-29T03:49:51;26.00;99.90
36990;DHT22;22898;52.102;5.776;2023-07-29T03:52:17;26.10;99.90
36990;DHT22;22898;52.102;5.776;2023-07-29T03:54:42;26.00;99.90
36990;DHT22;22898;52.102;5.776;2023-07-29T03:57:08;26.00;99.90
36990;DHT22;22898;52.102;5.776;2023-07-29T03:59:34;26.10;99.90
36990;DHT22;22898;52.102;5.776;2023-07-29T04:01:59;26.10;99.90
36990;DHT22;22898;52.102;5.776;2023-07-29T04:04:25;26.10;99.90
36990;DHT22;22898;52.102;5.776;2023-07-29T04:06:50;26.10;99.90
36990;DHT22;22898;52.102;5.776;2023-07-29T04:09:16;26.10;99.90
36990;DHT22;22898;52.102;5.776;2023-07-29T04:11:41;26.10;99.90
36990;DHT22;22898;52.102;5.776;2023-07-29T04:14:07;26.00;99.90
36990;DHT22;22898;52.102;5.776;2023-07-29T04:16:33;26.10;99.90
36990;DHT22;22898;52.102;5.776;2023-07-29T04:18:58;26.00;99.90
36990;DHT22;22898;52.102;5.776;2023-07-29T04:21:24;26.10;99.90
36990;DHT22;22898;52.102;5.776;2023-07-29T04:23:49;26.10;99.90
36990;DHT22;22898;52.102;5.776;2023-07-29T04:26:15;26.00;99.90
36990;DHT22;22898;52.102;5.776;2023-07-29T04:28:41;26.00;99.90
36990;DHT22;22898;52.102;5.776;2023-07-29T04:31:07;26.00;99.90
36990;DHT22;22898;52.102;5.776;2023-07-29T04:33:32;25.90;99.90
36990;DHT22;22898;52.102;5.776;2023-07-29T04:35:58;25.90;99.90
36990;DHT22;22898;52.102;5.776;2023-07-29T04:38:32;25.90;99.90
36990;DHT22;22898;52.102;5.776;2023-07-29T04:40:58;26.00;99.90
36990;DHT22;22898;52.102;5.776;2023-07-29T04:43:27;26.00;99.90
36990;DHT22;22898;52.102;5.776;2023-07-29T04:45:53;25.90;99.90
36990;DHT22;22898;52.102;5.776;2023-07-29T04:48:19;25.90;99.90
36990;DHT22;22898;52.102;5.776;2023-07-29T04:50:45;25.90;99.90
36990;DHT22;22898;52.102;5.776;2023-07-29T04:53:11;25.90;99.90
36990;DHT22;22898;52.102;5.776;2023-07-29T04:55:36;25.80;99.90
36990;DHT22;22898;52.102;5.776;2023-07-29T04:58:02;25.70;99.90
36990;DHT22;22898;52.102;5.776;2023-07-29T05:00:27;25.60;99.90
36990;DHT22;22898;52.102;5.776;2023-07-29T05:02:53;25.40;99.90
36990;DHT22;22898;52.102;5.776;2023-07-29T05:05:19;25.30;99.90
36990;DHT22;22898;52.102;5.776;2023-07-29T05:07:44;25.10;99.90
36990;DHT22;22898;52.102;5.776;2023-07-29T05:10:10;25.20;99.90
36990;DHT22;22898;52.102;5.776;2023-07-29T05:12:36;25.20;99.90
36990;DHT22;22898;52.102;5.776;2023-07-29T05:15:02;25.20;99.90
36990;DHT22;22898;52.102;5.776;2023-07-29T05:17:28;25.30;99.90
36990;DHT22;22898;52.102;5.776;2023-07-29T05:19:53;25.30;99.90
36990;DHT22;22898;52.102;5.776;2023-07-29T05:22:19;25.30;99.90
36990;DHT22;22898;52.102;5.776;2023-07-29T05:24:44;25.10;99.90
36990;DHT22;22898;52.102;5.776;2023-07-29T05:27:10;24.80;99.90
36990;DHT22;22898;52.102;5.776;2023-07-29T05:29:36;24.70;99.90
36990;DHT22;22898;52.102;5.776;2023-07-29T05:32:01;24.50;99.90
36990;DHT22;22898;52.102;5.776;2023-07-29T05:34:27;24.40;99.90
36990;DHT22;22898;52.102;5.776;2023-07-29T05:36:52;24.50;99.90
36990;DHT22;22898;52.102;5.776;2023-07-29T05:39:18;24.10;99.90
36990;DHT22;22898;52.102;5.776;2023-07-29T05:41:43;24.20;99.90
36990;DHT22;22898;52.102;5.776;2023-07-29T05:44:09;24.40;99.90
36990;DHT22;22898;52.102;5.776;2023-07-29T05:46:34;24.30;99.90
36990;DHT22;22898;52.102;5.776;2023-07-29T05:49:00;24.50;99.90
36990;DHT22;22898;52.102;5.776;2023-07-29T05:51:25;24.40;99.90
36990;DHT22;22898;52.102;5.776;2023-07-29T05:53:51;24.00;99.90
36990;DHT22;22898;52.102;5.776;2023-07-29T05:56:17;24.10;99.90
36990;DHT22;22898;52.102;5.776;2023-07-29T05:58:42;24.10;99.90
36990;DHT22;22898;52.102;5.776;2023-07-29T06:01:08;23.80;99.90
36990;DHT22;22898;52.102;5.776;2023-07-29T06:03:33;23.70;99.90
36990;DHT22;22898;52.102;5.776;2023-07-29T06:05:59;23.60;99.90
36990;DHT22;22898;52.102;5.776;2023-07-29T06:08:24;23.90;99.90
36990;DHT22;22898;52.102;5.776;2023-07-29T06:10:53;23.80;99.90
36990;DHT22;22898;52.102;5.776;2023-07-29T06:13:19;24.10;99.90
36990;DHT22;22898;52.102;5.776;2023-07-29T06:15:44;23.90;99.90
36990;DHT22;22898;52.102;5.776;2023-07-29T06:18:10;23.90;99.90
36990;DHT22;22898;52.102;5.776;2023-07-29T06:20:36;23.60;99.90
36990;DHT22;22898;52.102;5.776;2023-07-29T06:23:01;23.50;99.90
36990;DHT22;22898;52.102;5.776;2023-07-29T06:25:27;23.50;99.90
36990;DHT22;22898;52.102;5.776;2023-07-29T06:27:53;23.90;99.90
36990;DHT22;22898;52.102;5.776;2023-07-29T06:30:18;24.00;99.90
36990;DHT22;22898;52.102;5.776;2023-07-29T06:32:44;24.20;99.90
36990;DHT22;22898;52.102;5.776;2023-07-29T06:35:09;24.70;99.90
36990;DHT22;22898;52.102;5.776;2023-07-29T06:37:35;24.40;99.90
36990;DHT22;22898;52.102;5.776;2023-07-29T06:40:00;24.30;99.90
36990;DHT22;22898;52.102;5.776;2023-07-29T06:42:26;24.30;99.90
36990;DHT22;22898;52.102;5.776;2023-07-29T06:44:51;24.20;99.90
36990;DHT22;22898;52.102;5.776;2023-07-29T06:47:17;24.30;99.90
36990;DHT22;22898;52.102;5.776;2023-07-29T06:49:43;24.50;99.90
36990;DHT22;22898;52.102;5.776;2023-07-29T06:52:08;24.70;99.90
36990;DHT22;22898;52.102;5.776;2023-07-29T06:54:34;24.60;99.90
36990;DHT22;22898;52.102;5.776;2023-07-29T06:56:59;24.60;99.90
36990;DHT22;22898;52.102;5.776;2023-07-29T06:59:25;24.60;99.90
36990;DHT22;22898;52.102;5.776;2023-07-29T07:01:51;24.50;99.90
36990;DHT22;22898;52.102;5.776;2023-07-29T07:04:16;24.60;99.90
36990;DHT22;22898;52.102;5.776;2023-07-29T07:06:42;24.70;99.90
36990;DHT22;22898;52.102;5.776;2023-07-29T07:09:07;25.00;99.90
36990;DHT22;22898;52.102;5.776;2023-07-29T07:11:33;24.50;99.90
36990;DHT22;22898;52.102;5.776;2023-07-29T07:13:59;24.30;99.90
36990;DHT22;22898;52.102;5.776;2023-07-29T07:16:24;24.30;99.90
36990;DHT22;22898;52.102;5.776;2023-07-29T07:18:50;24.20;99.90
36990;DHT22;22898;52.102;5.776;2023-07-29T07:21:15;24.10;99.90
36990;DHT22;22898;52.102;5.776;2023-07-29T07:23:41;23.90;99.90
36990;DHT22;22898;52.102;5.776;2023-07-29T07:26:07;24.30;99.90
36990;DHT22;22898;52.102;5.776;2023-07-29T07:28:32;24.40;99.90
36990;DHT22;22898;52.102;5.776;2023-07-29T07:30:58;24.20;99.90
36990;DHT22;22898;52.102;5.776;2023-07-29T07:33:24;24.10;99.90
36990;DHT22;22898;52.102;5.776;2023-07-29T07:35:50;24.40;99.90
36990;DHT22;22898;52.102;5.776;2023-07-29T07:38:15;24.80;99.90
36990;DHT22;22898;52.102;5.776;2023-07-29T07:40:41;24.70;99.90
36990;DHT22;22898;52.102;5.776;2023-07-29T07:43:06;24.30;99.90
36990;DHT22;22898;52.102;5.776;2023-07-29T07:45:32;24.10;99.90
36990;DHT22;22898;52.102;5.776;2023-07-29T07:47:58;23.80;99.90
36990;DHT22;22898;52.102;5.776;2023-07-29T07:50:24;24.10;99.90
36990;DHT22;22898;52.102;5.776;2023-07-29T07:52:50;24.50;99.90
36990;DHT22;22898;52.102;5.776;2023-07-29T07:55:15;23.90;99.90
36990;DHT22;22898;52.102;5.776;2023-07-29T07:57:41;23.90;99.90
36990;DHT22;22898;52.102;5.776;2023-07-29T08:00:07;24.10;99.90
36990;DHT22;22898;52.102;5.776;2023-07-29T08:02:33;23.60;99.90
36990;DHT22;22898;52.102;5.776;2023-07-29T08:04:58;23.70;99.90
36990;DHT22;22898;52.102;5.776;2023-07-29T08:07:24;24.00;99.90
36990;DHT22;22898;52.102;5.776;2023-07-29T08:09:50;24.70;99.90
36990;DHT22;22898;52.102;5.776;2023-07-29T08:12:15;24.90;99.90
36990;DHT22;22898;52.102;5.776;2023-07-29T08:14:41;25.20;99.90
36990;DHT22;22898;52.102;5.776;2023-07-29T08:17:07;25.70;99.90
36990;DHT22;22898;52.102;5.776;2023-07-29T08:19:32;25.50;99.90
36990;DHT22;22898;52.102;5.776;2023-07-29T08:22:02;25.00;99.90
36990;DHT22;22898;52.102;5.776;2023-07-29T08:24:28;24.90;99.90
36990;DHT22;22898;52.102;5.776;2023-07-29T08:26:54;24.90;99.90
36990;DHT22;22898;52.102;5.776;2023-07-29T08:29:19;24.70;99.90
36990;DHT22;22898;52.102;5.776;2023-07-29T08:31:45;24.50;99.90
36990;DHT22;22898;52.102;5.776;2023-07-29T08:34:10;24.70;99.90
36990;DHT22;22898;52.102;5.776;2023-07-29T08:36:36;24.90;99.90
36990;DHT22;22898;52.102;5.776;2023-07-29T08:39:01;25.20;99.90
36990;DHT22;22898;52.102;5.776;2023-07-29T08:41:32;25.20;99.90
36990;DHT22;22898;52.102;5.776;2023-07-29T08:44:11;25.30;99.90
36990;DHT22;22898;52.102;5.776;2023-07-29T08:46:40;25.00;99.90
36990;DHT22;22898;52.102;5.776;2023-07-29T08:49:06;24.90;99.90
36990;DHT22;22898;52.102;5.776;2023-07-29T08:51:33;25.30;99.90
36990;DHT22;22898;52.102;5.776;2023-07-29T08:54:00;25.30;99.90
36990;DHT22;22898;52.102;5.776;2023-07-29T08:56:26;25.60;99.90
36990;DHT22;22898;52.102;5.776;2023-07-29T08:58:53;25.90;99.90
36990;DHT22;22898;52.102;5.776;2023-07-29T09:01:19;25.90;99.90
36990;DHT22;22898;52.102;5.776;2023-07-29T09:03:44;25.90;99.90
36990;DHT22;22898;52.102;5.776;2023-07-29T09:06:11;26.10;99.90
36990;DHT22;22898;52.102;5.776;2023-07-29T09:08:38;25.90;99.90
36990;DHT22;22898;52.102;5.776;2023-07-29T09:11:04;25.20;99.90
36990;DHT22;22898;52.102;5.776;2023-07-29T09:13:29;25.10;99.90
36990;DHT22;22898;52.102;5.776;2023-07-29T09:15:57;25.70;99.90
36990;DHT22;22898;52.102;5.776;2023-07-29T09:18:23;26.30;99.90
36990;DHT22;22898;52.102;5.776;2023-07-29T09:20:50;26.40;99.90
36990;DHT22;22898;52.102;5.776;2023-07-29T09:23:16;26.40;99.90
36990;DHT22;22898;52.102;5.776;2023-07-29T09:25:42;26.10;99.90
36990;DHT22;22898;52.102;5.776;2023-07-29T09:28:13;25.50;99.90
36990;DHT22;22898;52.102;5.776;2023-07-29T09:30:40;25.20;99.90
36990;DHT22;22898;52.102;5.776;2023-07-29T09:33:06;24.70;99.90
36990;DHT22;22898;52.102;5.776;2023-07-29T09:35:34;25.40;99.90
36990;DHT22;22898;52.102;5.776;2023-07-29T09:38:00;25.50;99.90
36990;DHT22;22898;52.102;5.776;2023-07-29T09:40:26;25.60;99.90
36990;DHT22;22898;52.102;5.776;2023-07-29T09:42:53;25.90;99.90
36990;DHT22;22898;52.102;5.776;2023-07-29T09:45:26;25.70;99.90
36990;DHT22;22898;52.102;5.776;2023-07-29T09:47:53;25.30;99.90
36990;DHT22;22898;52.102;5.776;2023-07-29T09:50:20;25.10;99.90
36990;DHT22;22898;52.102;5.776;2023-07-29T09:52:48;25.30;99.90
36990;DHT22;22898;52.102;5.776;2023-07-29T09:55:17;25.50;99.90
36990;DHT22;22898;52.102;5.776;2023-07-29T09:57:44;25.50;99.90
36990;DHT22;22898;52.102;5.776;2023-07-29T10:00:13;25.10;99.90
36990;DHT22;22898;52.102;5.776;2023-07-29T10:02:43;25.20;99.90
36990;DHT22;22898;52.102;5.776;2023-07-29T10:05:09;25.60;99.90
36990;DHT22;22898;52.102;5.776;2023-07-29T10:07:39;25.70;99.90
36990;DHT22;22898;52.102;5.776;2023-07-29T10:10:06;25.50;99.90
36990;DHT22;22898;52.102;5.776;2023-07-29T10:12:34;25.20;99.90
36990;DHT22;22898;52.102;5.776;2023-07-29T10:15:06;25.20;99.90
36990;DHT22;22898;52.102;5.776;2023-07-29T10:17:36;25.00;99.90
36990;DHT22;22898;52.102;5.776;2023-07-29T10:20:05;25.10;99.90
36990;DHT22;22898;52.102;5.776;2023-07-29T10:22:39;24.80;99.90
36990;DHT22;22898;52.102;5.776;2023-07-29T10:25:28;24.80;99.90
36990;DHT22;22898;52.102;5.776;2023-07-29T10:28:00;24.90;99.90
36990;DHT22;22898;52.102;5.776;2023-07-29T10:30:28;25.50;99.90
36990;DHT22;22898;52.102;5.776;2023-07-29T10:32:57;25.60;99.90
36990;DHT22;22898;52.102;5.776;2023-07-29T10:35:23;25.60;99.90
36990;DHT22;22898;52.102;5.776;2023-07-29T10:37:51;25.70;99.90
36990;DHT22;22898;52.102;5.776;2023-07-29T10:40:18;26.30;99.90
36990;DHT22;22898;52.102;5.776;2023-07-29T10:43:09;26.10;99.90
36990;DHT22;22898;52.102;5.776;2023-07-29T10:45:42;25.70;99.90
36990;DHT22;22898;52.102;5.776;2023-07-29T10:48:12;25.90;99.90
36990;DHT22;22898;52.102;5.776;2023-07-29T10:50:38;26.30;99.90
36990;DHT22;22898;52.102;5.776;2023-07-29T10:53:04;26.50;99.90
36990;DHT22;22898;52.102;5.776;2023-07-29T10:55:35;27.10;99.90
36990;DHT22;22898;52.102;5.776;2023-07-29T10:58:07;27.30;99.60
36990;DHT22;22898;52.102;5.776;2023-07-29T11:00:34;27.30;99.70
36990;DHT22;22898;52.102;5.776;2023-07-29T11:03:02;27.20;99.90
36990;DHT22;22898;52.102;5.776;2023-07-29T11:05:42;27.90;99.60
36990;DHT22;22898;52.102;5.776;2023-07-29T11:08:28;28.10;99.30
36990;DHT22;22898;52.102;5.776;2023-07-29T11:11:12;28.60;98.80
36990;DHT22;22898;52.102;5.776;2023-07-29T11:13:40;28.70;98.30
36990;DHT22;22898;52.102;5.776;2023-07-29T11:16:09;28.10;99.30
36990;DHT22;22898;52.102;5.776;2023-07-29T11:18:35;27.60;99.90
36990;DHT22;22898;52.102;5.776;2023-07-29T11:21:03;27.50;99.90
36990;DHT22;22898;52.102;5.776;2023-07-29T11:23:34;27.20;99.90
36990;DHT22;22898;52.102;5.776;2023-07-29T11:26:01;26.70;99.90
36990;DHT22;22898;52.102;5.776;2023-07-29T11:28:27;26.40;99.90
36990;DHT22;22898;52.102;5.776;2023-07-29T11:30:57;26.20;99.90
36990;DHT22;22898;52.102;5.776;2023-07-29T11:33:26;25.90;99.90
36990;DHT22;22898;52.102;5.776;2023-07-29T11:35:54;25.80;99.90
36990;DHT22;22898;52.102;5.776;2023-07-29T11:38:20;25.90;99.90
36990;DHT22;22898;52.102;5.776;2023-07-29T11:41:00;26.20;99.90
36990;DHT22;22898;52.102;5.776;2023-07-29T11:43:26;26.60;99.90
36990;DHT22;22898;52.102;5.776;2023-07-29T11:45:52;26.50;99.90
36990;DHT22;22898;52.102;5.776;2023-07-29T11:48:26;26.60;99.90
36990;DHT22;22898;52.102;5.776;2023-07-29T11:50:53;26.50;99.90
36990;DHT22;22898;52.102;5.776;2023-07-29T11:53:19;26.40;99.90
36990;DHT22;22898;52.102;5.776;2023-07-29T11:55:44;26.30;99.90
36990;DHT22;22898;52.102;5.776;2023-07-29T11:58:10;26.40;99.90
36990;DHT22;22898;52.102;5.776;2023-07-29T12:00:35;26.70;99.90
36990;DHT22;22898;52.102;5.776;2023-07-29T12:03:03;27.10;99.90
36990;DHT22;22898;52.102;5.776;2023-07-29T12:05:29;27.10;99.90
36990;DHT22;22898;52.102;5.776;2023-07-29T12:07:55;26.70;99.90
36990;DHT22;22898;52.102;5.776;2023-07-29T12:10:21;26.40;99.90
36990;DHT22;22898;52.102;5.776;2023-07-29T12:12:48;26.40;99.90
36990;DHT22;22898;52.102;5.776;2023-07-29T12:15:23;26.00;99.90
36990;DHT22;22898;52.102;5.776;2023-07-29T12:17:49;25.90;99.90
36990;DHT22;22898;52.102;5.776;2023-07-29T12:20:14;26.10;99.90
36990;DHT22;22898;52.102;5.776;2023-07-29T12:22:40;26.10;99.90
36990;DHT22;22898;52.102;5.776;2023-07-29T12:25:06;26.10;99.90
36990;DHT22;22898;52.102;5.776;2023-07-29T12:27:32;26.50;99.90
36990;DHT22;22898;52.102;5.776;2023-07-29T12:29:58;26.80;99.90
36990;DHT22;22898;52.102;5.776;2023-07-29T12:32:29;26.90;99.90
36990;DHT22;22898;52.102;5.776;2023-07-29T12:34:55;27.30;99.90
36990;DHT22;22898;52.102;5.776;2023-07-29T12:37:31;27.60;99.90
36990;DHT22;22898;52.102;5.776;2023-07-29T12:39:57;27.20;99.90
36990;DHT22;22898;52.102;5.776;2023-07-29T12:42:22;27.10;99.90
36990;DHT22;22898;52.102;5.776;2023-07-29T12:44:48;26.70;99.90
36990;DHT22;22898;52.102;5.776;2023-07-29T12:47:13;26.40;99.90
36990;DHT22;22898;52.102;5.776;2023-07-29T12:49:39;26.20;99.90
36990;DHT22;22898;52.102;5.776;2023-07-29T12:52:05;26.00;99.90
36990;DHT22;22898;52.102;5.776;2023-07-29T12:54:30;26.10;99.90
36990;DHT22;22898;52.102;5.776;2023-07-29T12:56:56;26.50;99.90
36990;DHT22;22898;52.102;5.776;2023-07-29T12:59:21;26.90;99.90
36990;DHT22;22898;52.102;5.776;2023-07-29T13:01:47;26.60;99.90
36990;DHT22;22898;52.102;5.776;2023-07-29T13:04:13;26.10;99.90
36990;DHT22;22898;52.102;5.776;2023-07-29T13:06:39;25.80;99.90
36990;DHT22;22898;52.102;5.776;2023-07-29T13:09:04;25.30;99.90
36990;DHT22;22898;52.102;5.776;2023-07-29T13:11:31;25.70;99.90
36990;DHT22;22898;52.102;5.776;2023-07-29T13:13:58;26.00;99.90
36990;DHT22;22898;52.102;5.776;2023-07-29T13:16:23;26.10;99.90
36990;DHT22;22898;52.102;5.776;2023-07-29T13:18:50;26.20;99.90
36990;DHT22;22898;52.102;5.776;2023-07-29T13:21:15;26.50;99.90
36990;DHT22;22898;52.102;5.776;2023-07-29T13:23:41;26.20;99.90
36990;DHT22;22898;52.102;5.776;2023-07-29T13:26:06;26.30;99.90
36990;DHT22;22898;52.102;5.776;2023-07-29T13:28:32;26.40;99.90
36990;DHT22;22898;52.102;5.776;2023-07-29T13:30:57;26.40;99.90
36990;DHT22;22898;52.102;5.776;2023-07-29T13:33:23;26.60;99.90
36990;DHT22;22898;52.102;5.776;2023-07-29T13:35:49;26.50;99.90
36990;DHT22;22898;52.102;5.776;2023-07-29T13:38:14;26.40;99.90
36990;DHT22;22898;52.102;5.776;2023-07-29T13:40:40;26.50;99.90
36990;DHT22;22898;52.102;5.776;2023-07-29T13:43:06;26.50;99.90
36990;DHT22;22898;52.102;5.776;2023-07-29T13:45:31;26.50;99.90
36990;DHT22;22898;52.102;5.776;2023-07-29T13:47:57;26.50;99.90
36990;DHT22;22898;52.102;5.776;2023-07-29T13:50:22;26.80;99.90
36990;DHT22;22898;52.102;5.776;2023-07-29T13:52:48;26.60;99.90
36990;DHT22;22898;52.102;5.776;2023-07-29T13:55:14;26.70;99.90
36990;DHT22;22898;52.102;5.776;2023-07-29T13:57:39;27.20;99.90
36990;DHT22;22898;52.102;5.776;2023-07-29T14:00:06;27.50;99.90
36990;DHT22;22898;52.102;5.776;2023-07-29T14:02:32;27.60;99.90
36990;DHT22;22898;52.102;5.776;2023-07-29T14:04:57;27.70;99.90
36990;DHT22;22898;52.102;5.776;2023-07-29T14:07:23;27.70;99.90
36990;DHT22;22898;52.102;5.776;2023-07-29T14:09:49;27.30;99.90
36990;DHT22;22898;52.102;5.776;2023-07-29T14:12:14;27.40;99.90
36990;DHT22;22898;52.102;5.776;2023-07-29T14:14:44;27.20;99.90
36990;DHT22;22898;52.102;5.776;2023-07-29T14:17:09;26.60;99.90
36990;DHT22;22898;52.102;5.776;2023-07-29T14:19:36;26.70;99.90
36990;DHT22;22898;52.102;5.776;2023-07-29T14:22:02;26.80;99.90
36990;DHT22;22898;52.102;5.776;2023-07-29T14:24:27;27.40;99.90
36990;DHT22;22898;52.102;5.776;2023-07-29T14:26:54;27.60;99.90
36990;DHT22;22898;52.102;5.776;2023-07-29T14:29:19;27.30;99.90
36990;DHT22;22898;52.102;5.776;2023-07-29T14:31:45;27.40;99.90
36990;DHT22;22898;52.102;5.776;2023-07-29T14:34:10;28.00;99.90
36990;DHT22;22898;52.102;5.776;2023-07-29T14:36:36;28.30;99.90
36990;DHT22;22898;52.102;5.776;2023-07-29T14:39:03;28.50;99.90
36990;DHT22;22898;52.102;5.776;2023-07-29T14:41:30;28.20;99.90
36990;DHT22;22898;52.102;5.776;2023-07-29T14:43:56;27.80;99.90
36990;DHT22;22898;52.102;5.776;2023-07-29T14:46:22;27.70;99.90
36990;DHT22;22898;52.102;5.776;2023-07-29T14:48:47;27.70;99.90
36990;DHT22;22898;52.102;5.776;2023-07-29T14:51:13;28.40;99.90
36990;DHT22;22898;52.102;5.776;2023-07-29T14:53:39;28.60;99.90
36990;DHT22;22898;52.102;5.776;2023-07-29T14:56:05;28.30;99.90
36990;DHT22;22898;52.102;5.776;2023-07-29T14:58:30;28.30;99.90
36990;DHT22;22898;52.102;5.776;2023-07-29T15:00:56;28.40;99.90
36990;DHT22;22898;52.102;5.776;2023-07-29T15:03:23;28.50;99.90
36990;DHT22;22898;52.102;5.776;2023-07-29T15:05:49;28.40;99.90
36990;DHT22;22898;52.102;5.776;2023-07-29T15:08:14;27.40;99.90
36990;DHT22;22898;52.102;5.776;2023-07-29T15:10:40;27.70;99.90
36990;DHT22;22898;52.102;5.776;2023-07-29T15:13:06;27.90;99.90
36990;DHT22;22898;52.102;5.776;2023-07-29T15:15:32;27.60;99.90
36990;DHT22;22898;52.102;5.776;2023-07-29T15:17:57;27.50;99.90
36990;DHT22;22898;52.102;5.776;2023-07-29T15:20:23;27.70;99.90
36990;DHT22;22898;52.102;5.776;2023-07-29T15:22:48;27.50;99.90
36990;DHT22;22898;52.102;5.776;2023-07-29T15:25:14;27.20;99.90
36990;DHT22;22898;52.102;5.776;2023-07-29T15:27:40;27.60;99.90
36990;DHT22;22898;52.102;5.776;2023-07-29T15:30:08;27.90;99.90